Home > Products > Valid Products > MTR

000
SAUS43 KMQT 252354
MTRP59
METAR KP59 252351Z AUTO 18008KT 12/08 A2998 RMK AO1 SLP156 T01220083
10156 20111 56018





000
SAUS43 KMQT 252257
MTRP53
METAR KP53 252256Z AUTO 00000KT 09/07 A2999 RMK AO1 SLP160 T00940072





000
SAUS43 KMQT 251857
MTRP53
METAR KP53 251856Z AUTO 03006KT 09/07 A3008 RMK AO1 SLP191 T00940072





000
SAUS43 KMQT 251854
MTRP59
METAR KP59 251851Z AUTO VRB05KT 14/08 A3007 RMK AO1 SLP185 T01390083





000
SAUS43 KMQT 251757
MTRP53
METAR KP53 251756Z AUTO 04004KT 11/08 A3009 RMK AO1 SLP193 T01060078
10106 20072 58007





000
SAUS43 KMQT 251554
MTRP59
METAR KP59 251551Z AUTO 20009G15KT 170V230 12/08 A3011 RMK AO1
SLP197 T01220078





000
SAUS43 KMQT 251357
MTRP53
METAR KP53 251356Z AUTO 06005KT 08/07 A3009 RMK AO1 SLP195 T00780067





000
SAUS43 KMQT 251257
MTRP53
METAR KP53 251256Z AUTO 04008KT 07/07 A3007 RMK AO1 SLP187 T00720067





000
SAUS43 KMQT 251157
MTRP53
METAR KP53 251156Z AUTO 34006KT 08/07 A3007 RMK AO1 SLP186 70075
T00780072 10083 20078 51013





000
SAUS43 KMQT 251153
MTRP59
METAR KP59 251151Z AUTO 00000KT 06/06 A3009 RMK AO1 SLP194 70028
T00610061 10094 20061 51007





000
SAUS43 KMQT 251054
MTRP59
METAR KP59 251051Z AUTO 11005KT 07/06 A3008 RMK AO1 SLP188 T00670061
$





000
SAUS43 KMQT 250753
MTRP59
METAR KP59 250751Z AUTO 00000KT 08/08 A3004 RMK AO1 SLP173 T00830078
$





000
SAUS43 KMQT 250657
MTRP53
METAR KP53 250656Z AUTO 01007KT 08/08 A3002 RMK AO1 SLP168 T00830078





000
SAUS43 KMQT 250652
MTRP59
METAR KP59 250651Z AUTO 00000KT 08/08 A3003 RMK AO1 SLP172 T00830078
$





000
SAUS43 KMQT 250558
MTRP53
METAR KP53 250556Z AUTO 02006KT 08/08 A3002 RMK AO1 SLP170 T00830078
10089 20072 51012





000
SAUS43 KMQT 250554
MTRP59
METAR KP59 250551Z AUTO 00000KT 09/09 A3004 RMK AO1 SLP174 T00940089
10100 20078 51001 $





000
SAUS43 KMQT 250054
MTRP59
METAR KP59 250051Z AUTO 12003KT 08/08 A3001 RMK AO1 SLP163 T00830083
$





000
SAUS43 KMQT 242357
MTRP53
METAR KP53 242356Z AUTO 03008KT 07/07 A2995 RMK AO1 SLP144 60069
T00720072 10183 20072 53001





000
SAUS43 KMQT 242152
MTRP59
METAR KP59 242151Z AUTO 09003KT 11/09 A2993 RMK AO1 SLP136 T01110094





000
SAUS43 KMQT 241957
MTRP53
METAR KP53 241956Z AUTO 01006KT 11/11 A2992 RMK AO1 SLP136 P0005
T01110106





000
SAUS43 KMQT 241857
MTRP53
METAR KP53 241856Z AUTO 00000KT 14/14 A2990 RMK AO1 SLP125 T01390139





000
SAUS43 KMQT 241854
MTRP59
METAR KP59 241851Z AUTO 15008KT 10/09 A2992 RMK AO1 PRESFR SLP131
P0015 T01000094





000
SAUS43 KMQT 241757
MTRP53
METAR KP53 241756Z AUTO 00000KT 13/12 A2991 RMK AO1 SLP131 P0003
60006 T01280122 10217 20122 50005





000
SAUS43 KMQT 241557
MTRP53
METAR KP53 241556Z AUTO 35005KT 17/12 A2992 RMK AO1 SLP134 T01720117





000
SAUS43 KMQT 241553
MTRP59
METAR KP59 241551Z AUTO 00000KT 11/10 A2991 RMK AO1 SLP125 T01060100





000
SAUS43 KMQT 241457
MTRP53
METAR KP53 241456Z AUTO 34007KT 17/11 A2990 RMK AO1 SLP124 T01720111
53013





000
SAUS43 KMQT 241454
MTRP59
METAR KP59 241451Z AUTO 04004KT 10/09 A2989 RMK AO1 SLP124 T01000094
53016





000
SAUS43 KMQT 241258
MTRP53
METAR KP53 241256Z AUTO 30007KT 22/11 A2987 RMK AO1 SLP113 T02170106





000
SAUS43 KMQT 241254
MTRP59
METAR KP59 241251Z AUTO 07003KT 13/13 A2986 RMK AO1 SLP108 T01330128





000
SAUS43 KMQT 241157
MTRP53
METAR KP53 241156Z AUTO 15005KT 16/07 A2986 RMK AO1 SLP110 T01610072
10161 20122 53006





000
SAUS43 KMQT 241154
MTRP59
METAR KP59 241151Z AUTO 00000KT 13/13 A2984 RMK AO1 SLP102 T01330128
10172 20106 50010





000
SAUS43 KMQT 241057
MTRP53
METAR KP53 241056Z AUTO 20008KT 14/06 A2985 RMK AO1 SLP107 T01440061





000
SAUS43 KMQT 241054
MTRP59
METAR KP59 241051Z AUTO 35006KT 11/11 A2984 RMK AO1 SLP104 T01110106





000
SAUS43 KMQT 240958
MTRP53
METAR KP53 240956Z AUTO 21010KT 14/05 A2984 RMK AO1 SLP104 T01390050





000
SAUS43 KMQT 240754
MTRP59
METAR KP59 240751Z AUTO 00000KT 17/14 A2981 RMK AO1 SLP085 T01720144





000
SAUS43 KMQT 240658
MTRP53
METAR KP53 240656Z AUTO 19004KT 14/06 A2986 RMK AO1 SLP110 T01390056





000
SAUS43 KMQT 240557
MTRP53
METAR KP53 240556Z AUTO 00000KT 14/04 A2987 RMK AO1 SLP113 T01390044
10233 20139 53005





000
SAUS43 KMQT 240553
MTRP59
METAR KP59 240551Z AUTO VRB05KT 17/14 A2981 RMK AO1 SLP085 T01720139
10206 20111 51007





000
SAUS43 KMQT 240457
MTRP53
METAR KP53 240456Z AUTO 20007KT 17/03 A2985 RMK AO1 SLP106 T01670033
402890128





000
SAUS43 KMQT 240358
MTRP53
METAR KP53 240356Z AUTO 19007KT 17/03 A2986 RMK AO1 SLP110 T01670033





000
SAUS43 KMQT 240257
MTRP53
METAR KP53 240256Z AUTO 20006KT 17/03 A2986 RMK AO1 SLP108 T01720033
51016





000
SAUS43 KMQT 240054
MTRP59
METAR KP59 240051Z AUTO 00000KT 19/11 A2976 RMK AO1 SLP071 T01940106





000
SAUS43 KMQT 232357
MTRP53
METAR KP53 232356Z AUTO 18012G21KT 23/06 A2981 RMK AO1 SLP093
T02330056 10289 20233 55009





000
SAUS43 KMQT 232354
MTRP59
METAR KP59 232351Z AUTO 00000KT 21/11 A2973 RMK AO1 SLP061 T02060111
10300 20161 50007





000
SAUS43 KMQT 232257
MTRP53
METAR KP53 232256Z AUTO 17008G20KT 140V210 25/07 A2980 RMK AO1 PK
WND 17026/2201 SLP092 T02500067





000
SAUS43 KMQT 232223
MTRP59
SPECI KP59 232220Z AUTO 35013KT 19/07 A2972 RMK AO1 WSHFT 2200
T01890072





000
SAUS43 KMQT 231957
MTRP53
METAR KP53 231956Z AUTO 17012G24KT 130V190 28/07 A2984 RMK AO1 PK
WND 18027/1944 SLP103 T02830067





000
SAUS43 KMQT 231857
MTRP53
METAR KP53 231856Z AUTO 20015G22KT 28/07 A2987 RMK AO1 SLP112
T02830072





000
SAUS43 KMQT 231854
MTRP59
METAR KP59 231851Z AUTO 23009G21KT 27/06 A2975 RMK AO1 SLP065
T02720061





000
SAUS43 KMQT 231657
MTRP53
METAR KP53 231656Z AUTO 20015G24KT 27/06 A2990 RMK AO1 SLP124
T02670061





000
SAUS43 KMQT 231453
MTRP59
METAR KP59 231451Z AUTO 23007G14KT 22/09 A2986 RMK AO1 SLP106
T02220089 58008





000
SAUS43 KMQT 231257
MTRP53
METAR KP53 231256Z AUTO 20009G16KT 18/06 A2997 RMK AO1 SLP148
T01780056





000
SAUS43 KMQT 231253
MTRP59
METAR KP59 231251Z AUTO 25009G15KT 19/09 A2988 RMK AO1 SLP116
T01940094





000
SAUS43 KMQT 231157
MTRP53
METAR KP53 231156Z AUTO 19007KT 16/06 A2997 RMK AO1 SLP148 T01560061
10156 20128 53006





000
SAUS43 KMQT 231154
MTRP59
METAR KP59 231151Z AUTO 25006KT 18/09 A2988 RMK AO1 SLP114 T01830094
10183 20139 53003





000
SAUS43 KMQT 230657
MTRP53
METAR KP53 230656Z AUTO 19007KT 13/04 A2995 RMK AO1 SLP146 T01280039





000
SAUS43 KMQT 230653
MTRP59
METAR KP59 230651Z AUTO 24010G17KT 16/08 A2986 RMK AO1 SLP110
T01610083





000
SAUS43 KMQT 230557
MTRP53
METAR KP53 230556Z AUTO 19008KT 14/01 A2995 RMK AO1 SLP145 T01390011
10217 20139 58009





000
SAUS43 KMQT 230552
MTRP59
METAR KP59 230551Z AUTO 24012G18KT 13/07 A2987 RMK AO1 SLP111
T01330072 10167 20117 58009





000
SAUS43 KMQT 230457
MTRP53
METAR KP53 230456Z AUTO 19006KT 14/00 A2996 RMK AO1 SLP149 T01440000
402170033





000
SAUS43 KMQT 230354
MTRP59
METAR KP59 230351Z AUTO 24010G19KT 12/04 A2989 RMK AO1 SLP119
T01220039





000
SAUS43 KMQT 230253
MTRP59
METAR KP59 230251Z AUTO 24011G19KT 12/04 A2990 RMK AO1 SLP122
T01220039 58009





000
SAUS43 KMQT 230157
MTRP53
METAR KP53 230156Z AUTO 20007KT 17/08 A2996 RMK AO1 SLP146 T01720078





000
SAUS43 KMQT 230057
MTRP53
METAR KP53 230056Z AUTO 20006KT 19/08 A2996 RMK AO1 SLP148 T01940083





000
SAUS43 KMQT 230054
MTRP59
METAR KP59 230051Z AUTO 24007KT 14/06 A2991 RMK AO1 SLP129 T01390061





    US Dept of Commerce
    National Oceanic and Atmospheric Administration
    National Weather Service
    1325 East West Highway
    Silver Spring, MD 20910
    Page Author: NWS Internet Services Team
Disclaimer
Information Quality
Credits
Glossary
Privacy Policy
Freedom of Information Act (FOIA)
About Us
Career Opportunities